Shagang Hongfa — 9V9138 — position and weather

sailwx.info

Track history (hours):
 
Tides and Currents Weather Stations Pressure Air Temp Water Temp Dewpoint Dewpoint Depression Visibility Wind Speed Wind Dir Waves Ship Positions

Shagang Hongfa

Last reported at 2017-Aug-19 20:05 UTC. Time now 2017-Aug-22 09:00 UTC.
Position N 01°13' E 103°56'.

Length 292 m; draft 18.4 m.

Type: Cargo ship. MMSI: 566178000.

Date/timePositionNaut miles runAvg speedWind from/ knotsBaromVisibWave heightAir tempDewpointWater temp
2017-Aug-19 20:05N 01°13' E 103°56'111.9
2017-Aug-19 20:00N 01°13' E 103°55'612.8
2017-Aug-19 19:31N 01°11' E 103°49'713.0
2017-Aug-19 19:00N 01°07' E 103°44'511.1
2017-Aug-19 18:30N 01°04' E 103°40'5 9.2
2017-Aug-19 17:57N 01°05' E 103°35'4 9.8
2017-Aug-19 17:31N 01°08' E 103°31'5 9.9
2017-Aug-19 17:00N 01°10' E 103°27'5 9.4
2017-Aug-19 16:30N 01°12' E 103°22'5 9.7
2017-Aug-19 15:59N 01°16' E 103°19'  
2017-Aug-14 10:12N 01°24' E 103°15'312.8
2017-Aug-14 09:56N 01°22' E 103°17'512.3
2017-Aug-14 09:30N 01°18' E 103°20'611.5
2017-Aug-14 08:59N 01°14' E 103°25'511.2
2017-Aug-14 08:30N 01°13' E 103°31'611.8
2017-Aug-14 08:00N 01°12' E 103°36'612.1
2017-Aug-14 07:30N 01°10' E 103°42'611.4
2017-Aug-14 07:00N 01°10' E 103°48'612.7
2017-Aug-14 06:30N 01°13' E 103°53'612.1
2017-Aug-14 06:00N 01°15' E 103°59'712.7
2017-Aug-14 05:26N 01°16' E 104°06'  
Track history (hours):
 
Tides and Currents Weather Stations Pressure Air Temp Water Temp Dewpoint Dewpoint Depression Visibility Wind Speed Wind Dir Waves Ship Positions

Shagang Hongfa

Last reported at 2017-Aug-19 20:05 UTC. Time now 2017-Aug-22 09:00 UTC.
Position N 01°13' E 103°56'.

Length 292 m; draft 18.4 m.

Type: Cargo ship. MMSI: 566178000.

Date/timePositionNaut miles runAvg speedWind from/ knotsBaromVisibWave heightAir tempDewpointWater temp
2017-Aug-19 20:05N 01°13' E 103°56'111.9
2017-Aug-19 20:00N 01°13' E 103°55'612.8
2017-Aug-19 19:31N 01°11' E 103°49'713.0
2017-Aug-19 19:00N 01°07' E 103°44'511.1
2017-Aug-19 18:30N 01°04' E 103°40'5 9.2
2017-Aug-19 17:57N 01°05' E 103°35'4 9.8
2017-Aug-19 17:31N 01°08' E 103°31'5 9.9
2017-Aug-19 17:00N 01°10' E 103°27'5 9.4
2017-Aug-19 16:30N 01°12' E 103°22'5 9.7
2017-Aug-19 15:59N 01°16' E 103°19'  
2017-Aug-14 10:12N 01°24' E 103°15'312.8
2017-Aug-14 09:56N 01°22' E 103°17'512.3
2017-Aug-14 09:30N 01°18' E 103°20'611.5
2017-Aug-14 08:59N 01°14' E 103°25'511.2
2017-Aug-14 08:30N 01°13' E 103°31'611.8
2017-Aug-14 08:00N 01°12' E 103°36'612.1
2017-Aug-14 07:30N 01°10' E 103°42'611.4
2017-Aug-14 07:00N 01°10' E 103°48'612.7
2017-Aug-14 06:30N 01°13' E 103°53'612.1
2017-Aug-14 06:00N 01°15' E 103°59'712.7
2017-Aug-14 05:26N 01°16' E 104°06'  

Dump ship's entire track history